sensor_id;sensor_type;location;lat;lon;timestamp;pressure;altitude;pressure_sealevel;temperature;humidity
55460;BME280;41326;45.302;-122.946;2023-04-03T00:00:52;100838.03;;;18.06;52.86
55460;BME280;41326;45.302;-122.946;2023-04-03T00:03:22;100846.19;;;18.18;52.71
55460;BME280;41326;45.302;-122.946;2023-04-03T00:05:53;100841.56;;;18.36;52.21
55460;BME280;41326;45.302;-122.946;2023-04-03T00:08:22;100845.94;;;18.51;51.51
55460;BME280;41326;45.302;-122.946;2023-04-03T00:10:54;100847.04;;;18.47;51.75
55460;BME280;41326;45.302;-122.946;2023-04-03T00:13:24;100845.58;;;18.45;51.77
55460;BME280;41326;45.302;-122.946;2023-04-03T00:15:54;100851.49;;;18.39;51.91
55460;BME280;41326;45.302;-122.946;2023-04-03T00:18:24;100848.05;;;18.38;51.87
55460;BME280;41326;45.302;-122.946;2023-04-03T00:20:54;100852.44;;;18.51;51.47
55460;BME280;41326;45.302;-122.946;2023-04-03T00:23:25;100856.39;;;18.65;51.21
55460;BME280;41326;45.302;-122.946;2023-04-03T00:25:56;100858.67;;;18.68;51.23
55460;BME280;41326;45.302;-122.946;2023-04-03T00:28:26;100856.14;;;18.63;51.18
55460;BME280;41326;45.302;-122.946;2023-04-03T00:30:57;100856.44;;;18.55;51.37
55460;BME280;41326;45.302;-122.946;2023-04-03T00:33:27;100858.58;;;18.58;51.27
55460;BME280;41326;45.302;-122.946;2023-04-03T00:35:57;100862.83;;;18.68;51.04
55460;BME280;41326;45.302;-122.946;2023-04-03T00:38:27;100870.01;;;18.84;50.72
55460;BME280;41326;45.302;-122.946;2023-04-03T00:40:57;100878.41;;;18.88;50.62
55460;BME280;41326;45.302;-122.946;2023-04-03T00:43:29;100871.51;;;18.83;50.50
55460;BME280;41326;45.302;-122.946;2023-04-03T00:46:00;100868.99;;;18.77;50.61
55460;BME280;41326;45.302;-122.946;2023-04-03T00:48:31;100869.07;;;18.71;50.81
55460;BME280;41326;45.302;-122.946;2023-04-03T00:50:59;100872.50;;;18.63;50.98
55460;BME280;41326;45.302;-122.946;2023-04-03T00:53:32;100872.58;;;18.70;51.04
55460;BME280;41326;45.302;-122.946;2023-04-03T00:56:01;100866.09;;;18.82;50.53
55460;BME280;41326;45.302;-122.946;2023-04-03T00:58:33;100861.86;;;18.93;50.19
55460;BME280;41326;45.302;-122.946;2023-04-03T01:01:05;100857.08;;;18.91;50.66
55460;BME280;41326;45.302;-122.946;2023-04-03T01:03:31;100855.21;;;18.87;50.98
55460;BME280;41326;45.302;-122.946;2023-04-03T01:06:01;100859.74;;;18.81;51.75
55460;BME280;41326;45.302;-122.946;2023-04-03T01:08:31;100859.72;;;18.72;52.64
55460;BME280;41326;45.302;-122.946;2023-04-03T01:11:01;100858.12;;;18.69;53.34
55460;BME280;41326;45.302;-122.946;2023-04-03T01:13:33;100861.53;;;18.66;54.36
55460;BME280;41326;45.302;-122.946;2023-04-03T01:16:03;100863.26;;;18.65;55.41
55460;BME280;41326;45.302;-122.946;2023-04-03T01:18:33;100860.26;;;18.63;55.08
55460;BME280;41326;45.302;-122.946;2023-04-03T01:21:10;100857.39;;;18.61;54.85
55460;BME280;41326;45.302;-122.946;2023-04-03T01:26:04;100849.07;;;18.52;54.81
55460;BME280;41326;45.302;-122.946;2023-04-03T01:28:35;100848.18;;;18.52;54.80
55460;BME280;41326;45.302;-122.946;2023-04-03T01:31:12;100851.48;;;18.48;54.85
55460;BME280;41326;45.302;-122.946;2023-04-03T01:33:36;100849.28;;;18.43;55.13
55460;BME280;41326;45.302;-122.946;2023-04-03T01:36:06;100853.69;;;18.40;55.96
55460;BME280;41326;45.302;-122.946;2023-04-03T01:38:36;100852.24;;;18.42;55.75
55460;BME280;41326;45.302;-122.946;2023-04-03T01:41:07;100856.65;;;18.44;55.16
55460;BME280;41326;45.302;-122.946;2023-04-03T01:43:36;100853.84;;;18.58;54.38
55460;BME280;41326;45.302;-122.946;2023-04-03T01:46:07;100854.76;;;18.76;53.83
55460;BME280;41326;45.302;-122.946;2023-04-03T01:48:37;100856.05;;;18.83;54.40
55460;BME280;41326;45.302;-122.946;2023-04-03T01:51:08;100856.75;;;18.78;55.44
55460;BME280;41326;45.302;-122.946;2023-04-03T01:53:38;100858.79;;;18.76;55.82
55460;BME280;41326;45.302;-122.946;2023-04-03T01:56:09;100861.08;;;18.75;55.86
55460;BME280;41326;45.302;-122.946;2023-04-03T01:58:39;100863.89;;;18.74;55.92
55460;BME280;41326;45.302;-122.946;2023-04-03T02:01:10;100868.23;;;18.73;55.22
55460;BME280;41326;45.302;-122.946;2023-04-03T02:03:40;100869.84;;;18.75;55.37
55460;BME280;41326;45.302;-122.946;2023-04-03T02:06:11;100873.26;;;18.71;55.68
55460;BME280;41326;45.302;-122.946;2023-04-03T02:08:41;100876.64;;;18.73;55.46
55460;BME280;41326;45.302;-122.946;2023-04-03T02:11:11;100876.10;;;18.69;56.20
55460;BME280;41326;45.302;-122.946;2023-04-03T02:13:41;100877.86;;;18.66;55.65
55460;BME280;41326;45.302;-122.946;2023-04-03T02:16:14;100878.73;;;18.64;56.45
55460;BME280;41326;45.302;-122.946;2023-04-03T02:18:43;100880.86;;;18.60;56.69
55460;BME280;41326;45.302;-122.946;2023-04-03T02:21:13;100882.38;;;18.61;56.47
55460;BME280;41326;45.302;-122.946;2023-04-03T02:23:44;100882.40;;;18.59;56.55
55460;BME280;41326;45.302;-122.946;2023-04-03T02:26:16;100887.28;;;18.58;56.91
55460;BME280;41326;45.302;-122.946;2023-04-03T02:28:44;100885.76;;;18.57;56.80
55460;BME280;41326;45.302;-122.946;2023-04-03T02:31:15;100890.30;;;18.55;56.94
55460;BME280;41326;45.302;-122.946;2023-04-03T02:33:44;100895.10;;;18.49;57.41
55460;BME280;41326;45.302;-122.946;2023-04-03T02:36:15;100900.76;;;18.50;57.30
55460;BME280;41326;45.302;-122.946;2023-04-03T02:38:45;100900.98;;;18.48;56.95
55460;BME280;41326;45.302;-122.946;2023-04-03T02:41:16;100901.59;;;18.45;56.60
55460;BME280;41326;45.302;-122.946;2023-04-03T02:43:45;100903.15;;;18.40;56.48
55460;BME280;41326;45.302;-122.946;2023-04-03T02:46:15;100904.03;;;18.42;56.22
55460;BME280;41326;45.302;-122.946;2023-04-03T02:48:45;100907.19;;;18.42;56.22
55460;BME280;41326;45.302;-122.946;2023-04-03T02:51:15;100905.67;;;18.41;55.95
55460;BME280;41326;45.302;-122.946;2023-04-03T02:53:46;100907.74;;;18.38;56.10
55460;BME280;41326;45.302;-122.946;2023-04-03T02:56:16;100909.27;;;18.35;56.03
55460;BME280;41326;45.302;-122.946;2023-04-03T02:58:46;100909.22;;;18.35;55.84
55460;BME280;41326;45.302;-122.946;2023-04-03T03:01:17;100912.93;;;18.34;55.33
55460;BME280;41326;45.302;-122.946;2023-04-03T03:03:47;100919.43;;;18.42;55.07
55460;BME280;41326;45.302;-122.946;2023-04-03T03:06:18;100923.30;;;18.58;54.77
55460;BME280;41326;45.302;-122.946;2023-04-03T03:08:47;100928.64;;;18.61;54.61
55460;BME280;41326;45.302;-122.946;2023-04-03T03:11:18;100929.38;;;18.62;54.59
55460;BME280;41326;45.302;-122.946;2023-04-03T03:13:48;100928.79;;;18.58;54.88
55460;BME280;41326;45.302;-122.946;2023-04-03T03:16:18;100929.08;;;18.57;54.93
55460;BME280;41326;45.302;-122.946;2023-04-03T03:18:48;100932.72;;;18.54;54.87
55460;BME280;41326;45.302;-122.946;2023-04-03T03:21:19;100937.71;;;18.49;54.85
55460;BME280;41326;45.302;-122.946;2023-04-03T03:23:50;100937.80;;;18.44;55.09
55460;BME280;41326;45.302;-122.946;2023-04-03T03:26:21;100937.03;;;18.42;55.10
55460;BME280;41326;45.302;-122.946;2023-04-03T03:28:52;100943.34;;;18.41;55.31
55460;BME280;41326;45.302;-122.946;2023-04-03T03:31:21;100947.61;;;18.40;55.08
55460;BME280;41326;45.302;-122.946;2023-04-03T03:33:52;100950.83;;;18.36;55.40
55460;BME280;41326;45.302;-122.946;2023-04-03T03:36:22;100950.54;;;18.32;55.41
55460;BME280;41326;45.302;-122.946;2023-04-03T03:38:52;100952.96;;;18.31;55.37
55460;BME280;41326;45.302;-122.946;2023-04-03T03:41:22;100961.34;;;18.33;55.03
55460;BME280;41326;45.302;-122.946;2023-04-03T03:43:53;100967.90;;;18.29;55.17
55460;BME280;41326;45.302;-122.946;2023-04-03T03:46:23;100970.38;;;18.28;55.23
55460;BME280;41326;45.302;-122.946;2023-04-03T03:48:54;100971.17;;;18.27;55.27
55460;BME280;41326;45.302;-122.946;2023-04-03T03:51:24;100973.81;;;18.26;55.21
55460;BME280;41326;45.302;-122.946;2023-04-03T03:53:55;100974.07;;;18.25;55.03
55460;BME280;41326;45.302;-122.946;2023-04-03T03:56:26;100974.36;;;18.37;54.77
55460;BME280;41326;45.302;-122.946;2023-04-03T03:58:56;100977.26;;;18.54;54.14
55460;BME280;41326;45.302;-122.946;2023-04-03T04:01:26;100982.78;;;18.63;54.07
55460;BME280;41326;45.302;-122.946;2023-04-03T04:03:57;100986.56;;;18.60;54.16
55460;BME280;41326;45.302;-122.946;2023-04-03T04:06:27;100986.39;;;18.56;54.25
55460;BME280;41326;45.302;-122.946;2023-04-03T04:08:57;100988.65;;;18.55;54.26
55460;BME280;41326;45.302;-122.946;2023-04-03T04:12:47;100987.50;;;18.50;54.35
55460;BME280;41326;45.302;-122.946;2023-04-03T04:15:17;100992.54;;;18.43;54.68
55460;BME280;41326;45.302;-122.946;2023-04-03T04:17:47;100993.46;;;18.38;54.74
55460;BME280;41326;45.302;-122.946;2023-04-03T04:20:17;100995.15;;;18.37;54.64
55460;BME280;41326;45.302;-122.946;2023-04-03T04:22:48;100997.40;;;18.38;54.70
55460;BME280;41326;45.302;-122.946;2023-04-03T04:25:19;101000.44;;;18.32;54.83
55460;BME280;41326;45.302;-122.946;2023-04-03T04:27:49;101002.77;;;18.27;55.02
55460;BME280;41326;45.302;-122.946;2023-04-03T04:30:20;101006.80;;;18.26;55.04
55460;BME280;41326;45.302;-122.946;2023-04-03T04:32:50;101012.38;;;18.20;55.15
55460;BME280;41326;45.302;-122.946;2023-04-03T04:35:20;101014.97;;;18.20;55.19
55460;BME280;41326;45.302;-122.946;2023-04-03T04:37:51;101014.64;;;18.19;55.07
55460;BME280;41326;45.302;-122.946;2023-04-03T04:40:21;101017.82;;;18.14;55.09
55460;BME280;41326;45.302;-122.946;2023-04-03T04:42:51;101018.79;;;18.13;55.10
55460;BME280;41326;45.302;-122.946;2023-04-03T04:45:22;101021.68;;;18.09;55.38
55460;BME280;41326;45.302;-122.946;2023-04-03T04:47:53;101024.17;;;18.06;55.49
55460;BME280;41326;45.302;-122.946;2023-04-03T04:50:22;101025.19;;;18.06;55.44
55460;BME280;41326;45.302;-122.946;2023-04-03T04:52:53;101026.40;;;18.05;55.43
55460;BME280;41326;45.302;-122.946;2023-04-03T04:55:23;101026.20;;;18.02;55.42
55460;BME280;41326;45.302;-122.946;2023-04-03T04:57:53;101028.39;;;18.02;55.30
55460;BME280;41326;45.302;-122.946;2023-04-03T05:00:24;101026.69;;;17.98;55.35
55460;BME280;41326;45.302;-122.946;2023-04-03T05:02:54;101028.22;;;17.96;55.35
55460;BME280;41326;45.302;-122.946;2023-04-03T05:05:24;101028.88;;;17.94;55.52
55460;BME280;41326;45.302;-122.946;2023-04-03T05:07:55;101029.25;;;17.92;55.57
55460;BME280;41326;45.302;-122.946;2023-04-03T05:10:25;101027.36;;;17.89;55.68
55460;BME280;41326;45.302;-122.946;2023-04-03T05:12:55;101028.44;;;17.88;55.73
55460;BME280;41326;45.302;-122.946;2023-04-03T05:15:26;101029.86;;;17.88;55.55
55460;BME280;41326;45.302;-122.946;2023-04-03T05:17:56;101031.79;;;17.84;55.67
55460;BME280;41326;45.302;-122.946;2023-04-03T05:20:26;101035.87;;;17.83;55.49
55460;BME280;41326;45.302;-122.946;2023-04-03T05:22:57;101039.97;;;17.84;55.54
55460;BME280;41326;45.302;-122.946;2023-04-03T05:25:27;101042.45;;;17.77;55.76
55460;BME280;41326;45.302;-122.946;2023-04-03T05:27:58;101041.82;;;17.76;55.84
55460;BME280;41326;45.302;-122.946;2023-04-03T05:30:28;101041.09;;;17.73;55.84
55460;BME280;41326;45.302;-122.946;2023-04-03T05:32:59;101041.74;;;17.74;55.93
55460;BME280;41326;45.302;-122.946;2023-04-03T05:35:29;101044.08;;;17.72;55.93
55460;BME280;41326;45.302;-122.946;2023-04-03T05:37:59;101048.57;;;17.73;55.70
55460;BME280;41326;45.302;-122.946;2023-04-03T05:40:30;101045.91;;;17.70;55.68
55460;BME280;41326;45.302;-122.946;2023-04-03T05:43:00;101040.00;;;17.62;55.93
55460;BME280;41326;45.302;-122.946;2023-04-03T05:45:30;101035.15;;;17.61;55.96
55460;BME280;41326;45.302;-122.946;2023-04-03T05:48:01;101039.35;;;17.59;55.96
55460;BME280;41326;45.302;-122.946;2023-04-03T05:50:31;101043.46;;;17.60;55.82
55460;BME280;41326;45.302;-122.946;2023-04-03T05:53:02;101043.16;;;17.59;55.85
55460;BME280;41326;45.302;-122.946;2023-04-03T05:55:31;101045.65;;;17.55;55.97
55460;BME280;41326;45.302;-122.946;2023-04-03T05:58:02;101045.47;;;17.56;55.75
55460;BME280;41326;45.302;-122.946;2023-04-03T06:00:32;101048.37;;;17.51;55.81
55460;BME280;41326;45.302;-122.946;2023-04-03T06:03:03;101050.60;;;17.50;55.77
55460;BME280;41326;45.302;-122.946;2023-04-03T06:05:33;101055.67;;;17.49;55.82
55460;BME280;41326;45.302;-122.946;2023-04-03T06:08:03;101063.41;;;17.47;55.83
55460;BME280;41326;45.302;-122.946;2023-04-03T06:10:34;101063.41;;;17.46;55.83
55460;BME280;41326;45.302;-122.946;2023-04-03T06:13:05;101062.93;;;17.45;55.73
55460;BME280;41326;45.302;-122.946;2023-04-03T06:15:35;101064.15;;;17.41;55.85
55460;BME280;41326;45.302;-122.946;2023-04-03T06:18:05;101060.98;;;17.39;55.81
55460;BME280;41326;45.302;-122.946;2023-04-03T06:20:36;101061.45;;;17.35;55.76
55460;BME280;41326;45.302;-122.946;2023-04-03T06:23:07;101061.27;;;17.35;55.83
55460;BME280;41326;45.302;-122.946;2023-04-03T06:25:37;101064.02;;;17.34;55.74
55460;BME280;41326;45.302;-122.946;2023-04-03T06:28:08;101064.80;;;17.30;55.88
55460;BME280;41326;45.302;-122.946;2023-04-03T06:30:38;101063.74;;;17.31;55.83
55460;BME280;41326;45.302;-122.946;2023-04-03T06:33:08;101064.04;;;17.28;55.85
55460;BME280;41326;45.302;-122.946;2023-04-03T06:35:39;101062.07;;;17.25;55.94
55460;BME280;41326;45.302;-122.946;2023-04-03T06:38:09;101060.38;;;17.23;55.81
55460;BME280;41326;45.302;-122.946;2023-04-03T06:40:39;101064.62;;;17.25;55.74
55460;BME280;41326;45.302;-122.946;2023-04-03T06:43:10;101068.62;;;17.25;55.74
55460;BME280;41326;45.302;-122.946;2023-04-03T06:45:40;101069.62;;;17.24;55.72
55460;BME280;41326;45.302;-122.946;2023-04-03T06:48:10;101071.93;;;17.20;55.71
55460;BME280;41326;45.302;-122.946;2023-04-03T06:50:41;101074.61;;;17.17;55.80
55460;BME280;41326;45.302;-122.946;2023-04-03T06:53:11;101071.67;;;17.11;55.92
55460;BME280;41326;45.302;-122.946;2023-04-03T06:55:41;101081.61;;;17.13;55.90
55460;BME280;41326;45.302;-122.946;2023-04-03T06:58:12;101082.92;;;17.15;55.66
55460;BME280;41326;45.302;-122.946;2023-04-03T07:00:42;101086.03;;;17.14;55.69
55460;BME280;41326;45.302;-122.946;2023-04-03T07:03:12;101086.27;;;17.12;55.83
55460;BME280;41326;45.302;-122.946;2023-04-03T07:05:43;101083.29;;;17.09;55.88
55460;BME280;41326;45.302;-122.946;2023-04-03T07:08:13;101085.91;;;17.03;56.01
55460;BME280;41326;45.302;-122.946;2023-04-03T07:10:44;101090.63;;;17.04;55.89
55460;BME280;41326;45.302;-122.946;2023-04-03T07:13:14;101093.86;;;17.00;55.91
55460;BME280;41326;45.302;-122.946;2023-04-03T07:15:44;101092.35;;;16.97;55.94
55460;BME280;41326;45.302;-122.946;2023-04-03T07:18:14;101089.78;;;16.96;55.85
55460;BME280;41326;45.302;-122.946;2023-04-03T07:20:45;101090.24;;;16.96;55.85
55460;BME280;41326;45.302;-122.946;2023-04-03T07:23:15;101086.95;;;16.94;55.87
55460;BME280;41326;45.302;-122.946;2023-04-03T07:25:49;101091.99;;;16.90;55.94
55460;BME280;41326;45.302;-122.946;2023-04-03T07:28:17;101090.14;;;16.90;55.96
55460;BME280;41326;45.302;-122.946;2023-04-03T07:30:50;101092.47;;;16.87;56.07
55460;BME280;41326;45.302;-122.946;2023-04-03T07:33:18;101095.97;;;16.89;55.88
55460;BME280;41326;45.302;-122.946;2023-04-03T07:35:48;101099.72;;;16.84;55.97
55460;BME280;41326;45.302;-122.946;2023-04-03T07:38:18;101106.25;;;16.85;55.81
55460;BME280;41326;45.302;-122.946;2023-04-03T07:40:52;101107.72;;;16.82;55.98
55460;BME280;41326;45.302;-122.946;2023-04-03T07:43:18;101112.76;;;16.81;56.04
55460;BME280;41326;45.302;-122.946;2023-04-03T07:45:48;101113.65;;;16.79;56.11
55460;BME280;41326;45.302;-122.946;2023-04-03T07:48:19;101114.91;;;16.77;56.13
55460;BME280;41326;45.302;-122.946;2023-04-03T07:50:48;101115.79;;;16.81;55.96
55460;BME280;41326;45.302;-122.946;2023-04-03T07:53:19;101116.76;;;16.76;56.15
55460;BME280;41326;45.302;-122.946;2023-04-03T07:55:51;101117.78;;;16.74;56.13
55460;BME280;41326;45.302;-122.946;2023-04-03T07:58:21;101118.86;;;16.76;55.92
55460;BME280;41326;45.302;-122.946;2023-04-03T08:00:50;101122.02;;;16.73;55.97
55460;BME280;41326;45.302;-122.946;2023-04-03T08:03:20;101122.02;;;16.70;56.11
55460;BME280;41326;45.302;-122.946;2023-04-03T08:05:52;101124.91;;;16.68;56.18
55460;BME280;41326;45.302;-122.946;2023-04-03T08:08:22;101130.27;;;16.64;56.23
55460;BME280;41326;45.302;-122.946;2023-04-03T08:10:54;101134.62;;;16.64;56.19
55460;BME280;41326;45.302;-122.946;2023-04-03T08:13:23;101137.97;;;16.60;56.25
55460;BME280;41326;45.302;-122.946;2023-04-03T08:15:53;101136.79;;;16.60;56.26
55460;BME280;41326;45.302;-122.946;2023-04-03T08:18:24;101138.92;;;16.58;56.34
55460;BME280;41326;45.302;-122.946;2023-04-03T08:20:53;101143.34;;;16.55;56.67
55460;BME280;41326;45.302;-122.946;2023-04-03T08:23:24;101144.11;;;16.54;56.74
55460;BME280;41326;45.302;-122.946;2023-04-03T08:25:53;101146.09;;;16.53;56.73
55460;BME280;41326;45.302;-122.946;2023-04-03T08:28:24;101141.75;;;16.50;56.75
55460;BME280;41326;45.302;-122.946;2023-04-03T08:30:54;101145.42;;;16.51;56.63
55460;BME280;41326;45.302;-122.946;2023-04-03T08:33:25;101142.35;;;16.48;56.59
55460;BME280;41326;45.302;-122.946;2023-04-03T08:35:55;101143.02;;;16.44;56.71
55460;BME280;41326;45.302;-122.946;2023-04-03T08:38:26;101143.29;;;16.44;56.47
55460;BME280;41326;45.302;-122.946;2023-04-03T08:41:03;101146.88;;;16.44;56.39
55460;BME280;41326;45.302;-122.946;2023-04-03T08:43:35;101147.57;;;16.42;56.51
55460;BME280;41326;45.302;-122.946;2023-04-03T08:46:00;101149.30;;;16.39;56.56
55460;BME280;41326;45.302;-122.946;2023-04-03T08:48:31;101149.75;;;16.38;56.53
55460;BME280;41326;45.302;-122.946;2023-04-03T08:51:02;101151.39;;;16.35;56.58
55460;BME280;41326;45.302;-122.946;2023-04-03T08:53:32;101155.09;;;16.37;56.41
55460;BME280;41326;45.302;-122.946;2023-04-03T08:55:58;101156.13;;;16.30;56.61
55460;BME280;41326;45.302;-122.946;2023-04-03T08:58:30;101157.55;;;16.34;56.35
55460;BME280;41326;45.302;-122.946;2023-04-03T09:01:02;101156.59;;;16.31;56.38
55460;BME280;41326;45.302;-122.946;2023-04-03T09:03:30;101153.28;;;16.31;56.47
55460;BME280;41326;45.302;-122.946;2023-04-03T09:06:03;101151.28;;;16.29;56.48
55460;BME280;41326;45.302;-122.946;2023-04-03T09:08:33;101151.53;;;16.28;56.48
55460;BME280;41326;45.302;-122.946;2023-04-03T09:11:12;101151.79;;;16.22;56.56
55460;BME280;41326;45.302;-122.946;2023-04-03T09:13:36;101154.99;;;16.20;56.62
55460;BME280;41326;45.302;-122.946;2023-04-03T09:16:02;101153.54;;;16.23;56.45
55460;BME280;41326;45.302;-122.946;2023-04-03T09:18:35;101154.40;;;16.22;56.22
55460;BME280;41326;45.302;-122.946;2023-04-03T09:21:08;101151.25;;;16.21;56.18
55460;BME280;41326;45.302;-122.946;2023-04-03T09:23:38;101154.61;;;16.21;56.20
55460;BME280;41326;45.302;-122.946;2023-04-03T09:26:08;101154.11;;;16.20;56.14
55460;BME280;41326;45.302;-122.946;2023-04-03T09:28:37;101158.45;;;16.18;56.20
55460;BME280;41326;45.302;-122.946;2023-04-03T09:31:06;101158.20;;;16.16;56.16
55460;BME280;41326;45.302;-122.946;2023-04-03T09:33:35;101157.58;;;16.13;56.25
55460;BME280;41326;45.302;-122.946;2023-04-03T09:36:05;101158.51;;;16.14;56.09
55460;BME280;41326;45.302;-122.946;2023-04-03T09:38:37;101162.51;;;16.15;55.92
55460;BME280;41326;45.302;-122.946;2023-04-03T09:41:13;101160.17;;;16.09;56.03
55460;BME280;41326;45.302;-122.946;2023-04-03T09:43:37;101160.35;;;16.08;56.05
55460;BME280;41326;45.302;-122.946;2023-04-03T09:48:37;101166.25;;;16.08;55.96
55460;BME280;41326;45.302;-122.946;2023-04-03T09:51:08;101171.85;;;16.06;55.99
55460;BME280;41326;45.302;-122.946;2023-04-03T09:53:40;101172.32;;;16.05;55.99
55460;BME280;41326;45.302;-122.946;2023-04-03T09:58:39;101171.76;;;16.02;56.06
55460;BME280;41326;45.302;-122.946;2023-04-03T10:01:09;101174.37;;;16.00;56.13
55460;BME280;41326;45.302;-122.946;2023-04-03T10:03:39;101172.06;;;16.01;56.27
55460;BME280;41326;45.302;-122.946;2023-04-03T10:06:20;101170.33;;;15.99;56.34
55460;BME280;41326;45.302;-122.946;2023-04-03T10:08:40;101167.49;;;15.98;56.32
55460;BME280;41326;45.302;-122.946;2023-04-03T10:11:15;101163.31;;;15.96;56.38
55460;BME280;41326;45.302;-122.946;2023-04-03T10:16:14;101159.91;;;15.93;56.46
55460;BME280;41326;45.302;-122.946;2023-04-03T10:18:45;101155.11;;;15.92;56.41
55460;BME280;41326;45.302;-122.946;2023-04-03T10:21:14;101153.27;;;15.88;56.50
55460;BME280;41326;45.302;-122.946;2023-04-03T10:23:47;101152.06;;;15.88;56.48
55460;BME280;41326;45.302;-122.946;2023-04-03T10:26:16;101160.92;;;15.85;56.55
55460;BME280;41326;45.302;-122.946;2023-04-03T10:28:44;101165.67;;;15.86;56.45
55460;BME280;41326;45.302;-122.946;2023-04-03T10:31:17;101168.02;;;15.84;56.48
55460;BME280;41326;45.302;-122.946;2023-04-03T10:33:48;101166.82;;;15.75;56.66
55460;BME280;41326;45.302;-122.946;2023-04-03T10:36:19;101171.49;;;15.76;56.64
55460;BME280;41326;45.302;-122.946;2023-04-03T10:38:51;101171.27;;;15.79;56.43
55460;BME280;41326;45.302;-122.946;2023-04-03T10:41:19;101168.41;;;15.78;56.37
55460;BME280;41326;45.302;-122.946;2023-04-03T10:43:52;101167.12;;;15.81;56.23
55460;BME280;41326;45.302;-122.946;2023-04-03T10:46:17;101161.82;;;15.80;56.20
55460;BME280;41326;45.302;-122.946;2023-04-03T10:48:54;101160.89;;;15.80;56.12
55460;BME280;41326;45.302;-122.946;2023-04-03T10:51:23;101161.13;;;15.75;56.16
55460;BME280;41326;45.302;-122.946;2023-04-03T10:53:48;101160.05;;;15.75;56.16
55460;BME280;41326;45.302;-122.946;2023-04-03T10:56:19;101162.61;;;15.73;56.14
55460;BME280;41326;45.302;-122.946;2023-04-03T10:58:47;101163.23;;;15.73;56.01
55460;BME280;41326;45.302;-122.946;2023-04-03T11:01:18;101168.43;;;15.73;55.97
55460;BME280;41326;45.302;-122.946;2023-04-03T11:03:47;101176.05;;;15.74;55.93
55460;BME280;41326;45.302;-122.946;2023-04-03T11:06:17;101179.63;;;15.70;56.13
55460;BME280;41326;45.302;-122.946;2023-04-03T11:08:50;101179.90;;;15.70;56.08
55460;BME280;41326;45.302;-122.946;2023-04-03T11:11:20;101181.50;;;15.71;56.04
55460;BME280;41326;45.302;-122.946;2023-04-03T11:13:50;101181.06;;;15.70;56.07
55460;BME280;41326;45.302;-122.946;2023-04-03T11:16:20;101184.49;;;15.66;56.16
55460;BME280;41326;45.302;-122.946;2023-04-03T11:18:49;101180.99;;;15.69;55.91
55460;BME280;41326;45.302;-122.946;2023-04-03T11:21:22;101178.20;;;15.63;56.05
55460;BME280;41326;45.302;-122.946;2023-04-03T11:23:48;101176.67;;;15.64;56.06
55460;BME280;41326;45.302;-122.946;2023-04-03T11:26:19;101173.14;;;15.63;56.16
55460;BME280;41326;45.302;-122.946;2023-04-03T11:28:52;101170.43;;;15.57;56.33
55460;BME280;41326;45.302;-122.946;2023-04-03T11:31:28;101172.91;;;15.58;56.30
55460;BME280;41326;45.302;-122.946;2023-04-03T11:33:56;101178.91;;;15.56;56.32
55460;BME280;41326;45.302;-122.946;2023-04-03T11:36:25;101185.65;;;15.55;56.28
55460;BME280;41326;45.302;-122.946;2023-04-03T11:38:52;101189.51;;;15.53;56.16
55460;BME280;41326;45.302;-122.946;2023-04-03T11:41:25;101190.68;;;15.55;56.08
55460;BME280;41326;45.302;-122.946;2023-04-03T11:43:57;101188.28;;;15.54;56.05
55460;BME280;41326;45.302;-122.946;2023-04-03T11:46:21;101188.99;;;15.54;56.00
55460;BME280;41326;45.302;-122.946;2023-04-03T11:48:53;101187.42;;;15.50;56.15
55460;BME280;41326;45.302;-122.946;2023-04-03T11:53:53;101198.44;;;15.50;56.06
55460;BME280;41326;45.302;-122.946;2023-04-03T11:56:28;101198.41;;;15.48;56.16
55460;BME280;41326;45.302;-122.946;2023-04-03T12:08:56;101200.35;;;15.41;56.33
55460;BME280;41326;45.302;-122.946;2023-04-03T12:11:30;101201.89;;;15.43;56.32
55460;BME280;41326;45.302;-122.946;2023-04-03T12:14:03;101199.31;;;15.42;56.27
55460;BME280;41326;45.302;-122.946;2023-04-03T12:16:27;101201.18;;;15.39;56.34
55460;BME280;41326;45.302;-122.946;2023-04-03T12:19:03;101197.51;;;15.36;56.37
55460;BME280;41326;45.302;-122.946;2023-04-03T12:22:35;101195.57;;;15.35;56.32
55460;BME280;41326;45.302;-122.946;2023-04-03T12:27:40;101200.30;;;15.34;56.39
55460;BME280;41326;45.302;-122.946;2023-04-03T12:30:15;101204.24;;;15.31;56.43
55460;BME280;41326;45.302;-122.946;2023-04-03T12:32:50;101203.99;;;15.28;56.50
55460;BME280;41326;45.302;-122.946;2023-04-03T12:35:12;101207.26;;;15.30;56.42
55460;BME280;41326;45.302;-122.946;2023-04-03T12:40:16;101212.27;;;15.24;56.43
55460;BME280;41326;45.302;-122.946;2023-04-03T12:45:16;101218.87;;;15.22;56.45
55460;BME280;41326;45.302;-122.946;2023-04-03T12:47:39;101220.49;;;15.25;56.27
55460;BME280;41326;45.302;-122.946;2023-04-03T12:52:44;101224.23;;;15.40;55.64
55460;BME280;41326;45.302;-122.946;2023-04-03T12:55:14;101228.69;;;15.54;55.26
55460;BME280;41326;45.302;-122.946;2023-04-03T12:57:39;101225.93;;;15.68;55.02
55460;BME280;41326;45.302;-122.946;2023-04-03T13:02:43;101230.65;;;16.00;54.11
55460;BME280;41326;45.302;-122.946;2023-04-03T13:05:14;101233.17;;;16.11;53.90
55460;BME280;41326;45.302;-122.946;2023-04-03T13:07:42;101232.29;;;16.11;53.90
55460;BME280;41326;45.302;-122.946;2023-04-03T13:10:16;101233.50;;;16.05;54.12
55460;BME280;41326;45.302;-122.946;2023-04-03T13:12:48;101232.13;;;16.04;53.90